createdAt,value
2022-08-17T00:00:44.112Z,20.64
2022-08-17T00:01:30.368Z,20.61
2022-08-17T00:02:36.099Z,20.59
2022-08-17T00:03:44.791Z,20.59
2022-08-17T00:04:51.515Z,20.59
2022-08-17T00:06:03.219Z,20.60
2022-08-17T00:07:07.040Z,20.57
2022-08-17T00:08:12.903Z,20.51
2022-08-17T00:09:19.560Z,20.55
2022-08-17T00:10:25.119Z,20.56
2022-08-17T00:11:35.967Z,20.60
2022-08-17T00:12:44.923Z,20.59
2022-08-17T00:13:52.190Z,20.60
2022-08-17T00:14:56.518Z,20.61
2022-08-17T00:17:15.442Z,20.67
2022-08-17T00:19:05.690Z,20.56
2022-08-17T00:19:28.841Z,20.49
2022-08-17T00:20:34.853Z,20.45
2022-08-17T00:22:32.677Z,20.45
2022-08-17T00:22:46.668Z,20.45
2022-08-17T00:23:54.083Z,20.34
2022-08-17T00:24:57.571Z,20.34
2022-08-17T00:26:01.707Z,20.43
2022-08-17T00:27:06.048Z,20.36
2022-08-17T00:28:08.557Z,20.33
2022-08-17T00:29:19.752Z,20.30
2022-08-17T00:30:21.029Z,20.25
2022-08-17T00:31:30.092Z,20.30
2022-08-17T00:33:14.624Z,20.27
2022-08-17T00:33:56.840Z,20.28
2022-08-17T00:35:03.323Z,20.29
2022-08-17T00:36:08.194Z,20.29
2022-08-17T00:37:11.912Z,20.27
2022-08-17T00:38:17.194Z,20.24
2022-08-17T00:39:22.426Z,20.25
2022-08-17T00:40:44.548Z,20.23
2022-08-17T00:41:40.117Z,20.22
2022-08-17T00:42:44.862Z,20.21
2022-08-17T00:44:00.061Z,20.18
2022-08-17T00:45:07.942Z,20.18
2022-08-17T00:47:25.792Z,20.25
2022-08-17T00:48:32.304Z,20.19
2022-08-17T00:49:36.435Z,20.18
2022-08-17T00:50:47.291Z,20.25
2022-08-17T00:51:56.613Z,20.26
2022-08-17T00:53:01.078Z,20.23
2022-08-17T00:54:17.240Z,20.19
2022-08-17T00:55:26.363Z,20.21
2022-08-17T00:56:47.958Z,20.08
2022-08-17T00:57:56.178Z,20.11
2022-08-17T00:59:01.463Z,20.07
2022-08-17T01:00:12.244Z,20.06
2022-08-17T01:02:42.497Z,20.11
2022-08-17T01:03:46.080Z,19.99
2022-08-17T01:04:53.391Z,20.01
2022-08-17T01:06:02.810Z,20.00
2022-08-17T01:07:08.806Z,20.03
2022-08-17T01:08:15.960Z,20.04
2022-08-17T01:09:20.872Z,20.11
2022-08-17T01:11:42.083Z,20.20
2022-08-17T01:12:45.675Z,20.06
2022-08-17T01:13:51.870Z,20.09
2022-08-17T01:14:58.077Z,20.12
2022-08-17T01:16:09.432Z,20.11
2022-08-17T01:17:13.667Z,20.05
2022-08-17T01:18:17.425Z,19.97
2022-08-17T01:20:53.154Z,20.26
2022-08-17T01:22:07.868Z,20.25
2022-08-17T01:23:20.609Z,20.26
2022-08-17T01:24:19.030Z,20.23
2022-08-17T01:25:23.267Z,20.21
2022-08-17T01:26:29.636Z,20.21
2022-08-17T01:27:37.523Z,20.27
2022-08-17T01:28:55.141Z,20.30
2022-08-17T01:29:50.556Z,20.28
2022-08-17T01:30:58.316Z,20.28
2022-08-17T01:32:05.988Z,20.29
2022-08-17T01:33:10.512Z,20.26
2022-08-17T01:34:18.674Z,20.20
2022-08-17T01:36:41.678Z,20.28
2022-08-17T01:37:45.383Z,20.19
2022-08-17T01:38:50.235Z,20.26
2022-08-17T01:39:57.902Z,20.18
2022-08-17T01:41:06.544Z,20.20
2022-08-17T01:42:27.734Z,20.20
2022-08-17T01:43:38.719Z,20.28
2022-08-17T01:44:42.441Z,20.26
2022-08-17T01:45:48.258Z,20.17
2022-08-17T01:46:56.060Z,20.12
2022-08-17T01:48:00.998Z,20.12
2022-08-17T01:49:10.360Z,20.15
2022-08-17T01:50:19.284Z,20.11
2022-08-17T01:51:23.034Z,20.15
2022-08-17T01:52:28.189Z,20.15
2022-08-17T01:53:41.863Z,20.13
2022-08-17T01:54:47.971Z,20.13
2022-08-17T01:55:54.919Z,20.11
2022-08-17T01:57:01.994Z,20.06
2022-08-17T01:58:10.020Z,20.05
2022-08-17T01:59:13.928Z,20.01
2022-08-17T02:00:20.037Z,19.93
2022-08-17T02:01:26.961Z,19.91
2022-08-17T02:02:31.578Z,19.97
2022-08-17T02:03:40.468Z,19.96
2022-08-17T02:04:48.275Z,19.95
2022-08-17T02:05:52.949Z,19.95
2022-08-17T02:06:56.306Z,19.94
2022-08-17T02:08:02.052Z,19.96
2022-08-17T02:09:16.841Z,19.93
2022-08-17T02:10:19.870Z,19.86
2022-08-17T02:11:22.655Z,19.80
2022-08-17T02:12:38.830Z,19.85
2022-08-17T02:13:39.460Z,19.79
2022-08-17T02:14:43.345Z,19.76
2022-08-17T02:15:47.535Z,19.76
2022-08-17T02:16:51.120Z,19.81
2022-08-17T02:17:54.652Z,19.85
2022-08-17T02:18:58.661Z,19.76
2022-08-17T02:20:11.634Z,19.70
2022-08-17T02:21:17.224Z,19.67
2022-08-17T02:22:22.552Z,19.70
2022-08-17T02:23:30.200Z,19.68
2022-08-17T02:25:01.075Z,19.67
2022-08-17T02:25:50.192Z,19.48
2022-08-17T02:26:58.157Z,19.39
2022-08-17T02:28:03.007Z,19.38
2022-08-17T02:29:09.040Z,19.48
2022-08-17T02:31:00.310Z,19.52
2022-08-17T02:31:21.202Z,19.48
2022-08-17T02:32:28.667Z,19.51
2022-08-17T02:33:41.982Z,19.53
2022-08-17T02:34:41.040Z,19.42
2022-08-17T02:35:44.044Z,19.34
2022-08-17T02:36:49.255Z,19.24
2022-08-17T02:37:55.381Z,19.25
2022-08-17T02:38:58.124Z,19.36
2022-08-17T02:40:01.966Z,19.36
2022-08-17T02:41:08.498Z,19.43
2022-08-17T02:42:14.420Z,19.58
2022-08-17T02:43:19.234Z,19.59
2022-08-17T02:44:39.180Z,19.62
2022-08-17T02:45:31.816Z,19.58
2022-08-17T02:46:38.958Z,19.69
2022-08-17T02:47:46.398Z,19.75
2022-08-17T02:48:50.443Z,19.74
2022-08-17T02:49:56.122Z,19.70
2022-08-17T02:51:01.508Z,19.77
2022-08-17T02:52:14.884Z,19.84
2022-08-17T02:53:18.556Z,19.92
2022-08-17T02:54:40.659Z,19.96
2022-08-17T02:55:36.549Z,19.96
2022-08-17T02:56:40.797Z,19.95
2022-08-17T02:57:48.570Z,19.90
2022-08-17T02:58:59.108Z,19.80
2022-08-17T03:00:12.677Z,19.80
2022-08-17T03:01:16.774Z,19.78
2022-08-17T03:02:20.754Z,19.84
2022-08-17T03:03:24.409Z,19.84
2022-08-17T03:04:28.019Z,19.84
2022-08-17T03:05:35.565Z,19.80
2022-08-17T03:06:39.990Z,19.80
2022-08-17T03:07:43.617Z,19.77
2022-08-17T03:08:46.498Z,19.72
2022-08-17T03:09:53.486Z,19.73
2022-08-17T03:10:57.286Z,19.73
2022-08-17T03:37:18.582Z,20.03
2022-08-17T03:38:25.425Z,19.98
2022-08-17T03:39:29.602Z,20.09
2022-08-17T03:40:58.855Z,20.13
2022-08-17T03:41:41.186Z,20.20
2022-08-17T03:42:45.679Z,20.25
2022-08-17T03:43:50.576Z,20.30
2022-08-17T03:44:57.811Z,20.29
2022-08-17T03:46:34.619Z,20.32
2022-08-17T03:47:47.390Z,20.33
2022-08-17T03:49:10.701Z,20.36
2022-08-17T03:50:21.800Z,20.32
2022-08-17T03:51:47.708Z,20.40
2022-08-17T03:53:10.068Z,20.40
2022-08-17T03:54:31.923Z,20.46
2022-08-17T03:55:55.800Z,20.48
2022-08-17T03:57:09.012Z,20.50
2022-08-17T03:58:13.668Z,20.49
2022-08-17T03:59:22.288Z,20.52
2022-08-17T04:00:28.666Z,20.59
2022-08-17T04:01:32.470Z,20.58
2022-08-17T04:02:38.290Z,20.55
2022-08-17T04:03:47.229Z,20.65
2022-08-17T04:04:51.615Z,20.78
2022-08-17T04:05:54.215Z,20.84
2022-08-17T04:06:58.992Z,20.90
2022-08-17T04:08:02.778Z,20.94
2022-08-17T04:09:11.071Z,20.96
2022-08-17T04:10:18.439Z,20.96
2022-08-17T04:11:23.016Z,21.02
2022-08-17T04:12:33.009Z,21.06
2022-08-17T04:13:36.740Z,21.08
2022-08-17T04:14:53.782Z,21.05
2022-08-17T04:15:44.837Z,21.07
2022-08-17T04:16:50.757Z,21.04
2022-08-17T04:17:56.585Z,21.00
2022-08-17T04:19:06.469Z,21.03
2022-08-17T04:20:13.624Z,21.06
2022-08-17T04:21:19.498Z,21.02
2022-08-17T04:22:32.508Z,20.98
2022-08-17T04:23:33.544Z,20.98
2022-08-17T04:24:41.034Z,21.01
2022-08-17T04:25:50.756Z,21.01
2022-08-17T04:26:57.526Z,21.12
2022-08-17T04:28:01.761Z,21.13
2022-08-17T04:29:08.319Z,21.20
2022-08-17T04:30:13.276Z,21.28
2022-08-17T04:31:17.148Z,21.30
2022-08-17T04:32:25.012Z,21.37
2022-08-17T04:33:31.904Z,21.40
2022-08-17T04:34:35.816Z,21.56
2022-08-17T04:35:47.153Z,21.68
2022-08-17T04:36:51.004Z,21.65
2022-08-17T04:37:56.944Z,21.66
2022-08-17T04:39:01.775Z,21.87
2022-08-17T04:40:26.496Z,22.00
2022-08-17T04:41:51.905Z,22.48
2022-08-17T04:44:30.411Z,22.80
2022-08-17T04:45:26.944Z,22.75
2022-08-17T04:46:36.507Z,22.96
2022-08-17T04:47:40.737Z,23.01
2022-08-17T04:48:50.963Z,22.96
2022-08-17T04:49:54.472Z,22.95
2022-08-17T04:50:59.712Z,22.86
2022-08-17T04:52:10.507Z,22.96
2022-08-17T04:53:17.603Z,23.15
2022-08-17T04:54:26.050Z,23.36
2022-08-17T04:55:29.829Z,23.45
2022-08-17T04:56:39.238Z,23.67
2022-08-17T04:57:45.208Z,23.89
2022-08-17T04:58:51.357Z,24.42
2022-08-17T04:59:57.180Z,25.18
2022-08-17T05:01:00.780Z,25.34
2022-08-17T05:03:17.580Z,27.22
2022-08-17T05:04:33.966Z,28.08
2022-08-17T05:05:38.056Z,29.09
2022-08-17T05:06:47.836Z,30.61
2022-08-17T05:07:57.262Z,31.94
2022-08-17T05:09:04.144Z,32.25
2022-08-17T05:10:09.562Z,32.45
2022-08-17T05:11:17.902Z,33.28
2022-08-17T05:12:22.420Z,33.69
2022-08-17T05:13:33.101Z,33.94
2022-08-17T05:14:42.748Z,34.12
2022-08-17T05:15:50.055Z,33.75
2022-08-17T05:16:53.617Z,33.33
2022-08-17T05:17:58.500Z,32.56
2022-08-17T05:19:03.016Z,32.11
2022-08-17T05:20:09.334Z,32.90
2022-08-17T05:21:14.032Z,33.31
2022-08-17T05:22:22.247Z,33.28
2022-08-17T05:23:41.563Z,32.61
2022-08-17T05:24:42.660Z,31.62
2022-08-17T05:25:47.410Z,31.05
2022-08-17T05:26:52.291Z,31.04
2022-08-17T05:27:59.086Z,30.49
2022-08-17T05:29:04.020Z,30.01
2022-08-17T05:30:10.082Z,29.07
2022-08-17T05:31:14.660Z,28.42
2022-08-17T05:32:38.121Z,28.69
2022-08-17T05:33:37.118Z,29.58
2022-08-17T05:34:42.011Z,30.38
2022-08-17T05:35:51.653Z,30.12
2022-08-17T05:37:03.073Z,30.22
2022-08-17T05:38:08.498Z,29.93
2022-08-17T05:39:15.697Z,29.28
2022-08-17T05:40:22.207Z,28.67
2022-08-17T05:41:25.865Z,28.29
2022-08-17T05:42:31.840Z,27.66
2022-08-17T05:43:39.590Z,27.41
2022-08-17T05:44:44.474Z,27.09
2022-08-17T05:45:56.444Z,26.55
2022-08-17T05:47:04.665Z,26.13
2022-08-17T05:48:09.813Z,25.96
2022-08-17T05:49:18.594Z,26.15
2022-08-17T05:50:27.166Z,26.19
2022-08-17T05:51:48.808Z,26.00
2022-08-17T05:53:27.925Z,26.02
2022-08-17T05:54:40.460Z,26.23
2022-08-17T05:55:53.993Z,26.28
2022-08-17T05:57:39.502Z,26.77
2022-08-17T05:59:08.104Z,26.53
2022-08-17T06:02:14.217Z,26.03
2022-08-17T06:03:34.437Z,25.90
2022-08-17T06:04:46.679Z,26.36
2022-08-17T06:05:56.587Z,26.26
2022-08-17T06:07:15.379Z,26.10
2022-08-17T06:08:28.363Z,26.10
2022-08-17T06:09:44.079Z,26.15
2022-08-17T06:11:04.295Z,26.32
2022-08-17T06:12:19.743Z,26.45
2022-08-17T06:13:58.004Z,26.18
2022-08-17T06:15:18.233Z,26.43
2022-08-17T06:16:34.035Z,26.85
2022-08-17T06:17:34.972Z,27.02
2022-08-17T06:18:48.331Z,27.06
2022-08-17T06:20:00.378Z,27.43
2022-08-17T06:21:07.920Z,27.43
2022-08-17T06:22:16.239Z,27.70
2022-08-17T06:25:10.388Z,27.58
2022-08-17T06:26:16.035Z,27.53
2022-08-17T06:27:31.365Z,27.53
2022-08-17T06:28:38.529Z,27.54
2022-08-17T06:30:04.227Z,27.40
2022-08-17T06:31:14.405Z,27.58
2022-08-17T06:32:18.120Z,27.66
2022-08-17T06:33:23.780Z,27.50
2022-08-17T06:34:30.492Z,27.50
2022-08-17T06:37:13.871Z,27.56
2022-08-17T06:38:37.523Z,27.66
2022-08-17T06:40:07.782Z,27.79
2022-08-17T06:41:20.905Z,27.88
2022-08-17T06:43:02.717Z,28.13
2022-08-17T06:44:02.447Z,28.13
2022-08-17T06:45:14.335Z,29.66
2022-08-17T06:46:36.413Z,30.67
2022-08-17T06:47:52.048Z,32.30
2022-08-17T06:49:28.438Z,33.81
2022-08-17T06:50:44.059Z,34.96
2022-08-17T06:51:53.230Z,36.73
2022-08-17T06:54:28.417Z,38.26
2022-08-17T06:55:49.785Z,37.73
2022-08-17T06:57:07.716Z,37.99
2022-08-17T06:58:16.219Z,38.44
2022-08-17T06:59:23.868Z,39.38
2022-08-17T07:00:34.443Z,39.97
2022-08-17T07:01:41.217Z,40.28
2022-08-17T07:03:07.354Z,40.02
2022-08-17T07:04:27.121Z,39.83
2022-08-17T07:05:46.336Z,40.29
2022-08-17T07:06:53.074Z,39.68
2022-08-17T07:08:03.184Z,38.83
2022-08-17T07:09:10.928Z,38.22
2022-08-17T07:10:16.835Z,38.93
2022-08-17T07:11:37.367Z,39.11
2022-08-17T07:12:46.659Z,39.27
2022-08-17T07:14:24.799Z,38.58
2022-08-17T07:15:33.153Z,38.69
2022-08-17T07:16:47.194Z,40.11
2022-08-17T07:17:51.968Z,40.57
2022-08-17T07:18:58.014Z,41.16
2022-08-17T07:20:11.878Z,40.87
2022-08-17T07:21:26.219Z,40.99
2022-08-17T07:22:53.511Z,40.49
2022-08-17T07:23:57.895Z,40.49
2022-08-17T07:25:06.994Z,41.25
2022-08-17T07:26:10.611Z,39.90
2022-08-17T07:27:17.906Z,39.31
2022-08-17T07:28:22.874Z,38.69
2022-08-17T07:29:30.687Z,39.00
2022-08-17T07:30:47.508Z,39.53
2022-08-17T07:31:46.645Z,38.63
2022-08-17T07:33:02.065Z,38.67
2022-08-17T07:34:12.491Z,38.79
2022-08-17T07:35:40.642Z,39.54
2022-08-17T07:36:40.677Z,38.46
2022-08-17T07:37:55.654Z,37.85
2022-08-17T07:39:01.697Z,36.84
2022-08-17T07:41:21.322Z,35.66
2022-08-17T07:42:25.348Z,36.12
2022-08-17T07:43:44.865Z,36.34
2022-08-17T07:44:57.570Z,36.03
2022-08-17T07:46:33.837Z,35.75
2022-08-17T07:47:56.354Z,35.01
2022-08-17T07:49:03.305Z,34.76
2022-08-17T07:51:50.217Z,35.10
2022-08-17T07:52:59.845Z,35.39
2022-08-17T07:54:14.552Z,35.13
2022-08-17T07:55:33.383Z,34.36
2022-08-17T07:56:58.676Z,33.98
2022-08-17T07:58:02.487Z,33.97
2022-08-17T07:59:14.607Z,33.10
2022-08-17T08:00:19.233Z,32.93
2022-08-17T08:01:25.021Z,32.76
2022-08-17T08:02:41.660Z,32.48
2022-08-17T08:03:51.035Z,32.47
2022-08-17T08:06:21.473Z,32.35
2022-08-17T08:07:32.090Z,32.12
2022-08-17T08:08:37.863Z,31.94
2022-08-17T08:09:44.715Z,31.65
2022-08-17T08:10:52.012Z,31.61
2022-08-17T08:11:58.688Z,31.53
2022-08-17T08:13:20.259Z,31.87
2022-08-17T08:14:30.138Z,32.12
2022-08-17T08:15:54.191Z,32.81
2022-08-17T08:17:01.664Z,33.60
2022-08-17T08:18:08.057Z,33.88
2022-08-17T08:19:16.315Z,35.17
2022-08-17T08:21:41.212Z,36.43
2022-08-17T08:22:53.344Z,36.25
2022-08-17T08:24:16.163Z,36.23
2022-08-17T08:25:23.476Z,35.70
2022-08-17T08:26:37.086Z,36.05
2022-08-17T08:28:05.601Z,36.18
2022-08-17T08:29:19.063Z,36.08
2022-08-17T08:30:28.703Z,36.19
2022-08-17T08:31:42.470Z,36.03
2022-08-17T08:33:01.683Z,35.39
2022-08-17T08:34:58.622Z,35.21
2022-08-17T08:35:35.029Z,35.08
2022-08-17T08:36:57.064Z,35.45
2022-08-17T08:38:19.522Z,35.12
2022-08-17T08:39:48.562Z,35.13
2022-08-17T08:41:22.620Z,35.81
2022-08-17T08:42:47.135Z,36.11
2022-08-17T08:44:05.003Z,36.50
2022-08-17T08:45:19.425Z,36.48
2022-08-17T08:48:05.394Z,36.39
2022-08-17T08:50:06.040Z,36.34
2022-08-17T08:51:03.902Z,36.31
2022-08-17T08:52:12.147Z,36.24
2022-08-17T08:53:29.606Z,36.07
2022-08-17T08:54:50.051Z,36.27
2022-08-17T08:57:34.868Z,35.63
2022-08-17T08:58:47.800Z,35.34
2022-08-17T09:00:05.366Z,35.06
2022-08-17T09:01:17.553Z,35.28
2022-08-17T09:02:29.651Z,35.25
2022-08-17T09:05:13.966Z,35.63
2022-08-17T09:06:32.251Z,35.29
2022-08-17T09:07:38.666Z,35.31
2022-08-17T09:10:15.387Z,35.77
2022-08-17T09:12:02.893Z,35.64
2022-08-17T09:13:10.292Z,35.21
2022-08-17T09:14:28.606Z,35.13
2022-08-17T09:15:35.584Z,35.00
2022-08-17T09:17:12.100Z,34.67
2022-08-17T09:19:00.417Z,34.55
2022-08-17T09:19:37.683Z,34.53
2022-08-17T09:22:03.554Z,35.04
2022-08-17T09:23:17.098Z,34.86
2022-08-17T09:24:25.091Z,35.07
2022-08-17T09:25:32.776Z,35.12
2022-08-17T09:26:40.448Z,34.86
2022-08-17T09:28:00.622Z,34.69
2022-08-17T09:29:07.785Z,34.55
2022-08-17T09:30:14.408Z,34.70
2022-08-17T09:31:26.029Z,35.11
2022-08-17T09:32:45.991Z,35.10
2022-08-17T09:33:50.073Z,34.82
2022-08-17T09:34:57.478Z,34.90
2022-08-17T09:36:04.869Z,35.11
2022-08-17T09:37:33.668Z,35.16
2022-08-17T09:38:52.845Z,34.99
2022-08-17T09:40:10.204Z,34.62
2022-08-17T09:41:25.549Z,34.41
2022-08-17T09:42:40.284Z,34.37
2022-08-17T09:44:01.319Z,34.35
2022-08-17T09:45:26.783Z,34.73
2022-08-17T09:46:42.440Z,34.67
2022-08-17T09:47:59.585Z,34.87
2022-08-17T09:49:14.998Z,34.21
2022-08-17T09:51:44.438Z,34.34
2022-08-17T09:52:54.997Z,34.31
2022-08-17T09:54:34.969Z,34.76
2022-08-17T09:55:09.053Z,34.90
2022-08-17T09:56:33.597Z,35.02
2022-08-17T09:57:48.130Z,35.37
2022-08-17T09:59:20.465Z,35.04
2022-08-17T10:00:31.767Z,35.29
2022-08-17T10:01:43.306Z,34.74
2022-08-17T10:02:56.260Z,35.07
2022-08-17T10:04:06.412Z,34.62
2022-08-17T10:05:17.363Z,34.49
2022-08-17T10:06:32.218Z,34.72
2022-08-17T10:07:47.976Z,34.77
2022-08-17T10:09:07.675Z,34.83
2022-08-17T10:10:15.568Z,34.88
2022-08-17T10:11:33.738Z,34.73
2022-08-17T10:12:47.027Z,34.51
2022-08-17T10:15:14.188Z,33.94
2022-08-17T10:16:27.131Z,33.82
2022-08-17T10:17:47.125Z,34.14
2022-08-17T10:19:09.929Z,34.10
2022-08-17T10:20:18.631Z,34.04
2022-08-17T10:21:44.407Z,34.15
2022-08-17T10:23:10.226Z,34.30
2022-08-17T10:24:39.260Z,34.29
2022-08-17T10:26:09.706Z,34.30
2022-08-17T10:27:20.523Z,34.40
2022-08-17T10:28:30.100Z,34.67
2022-08-17T10:31:16.729Z,34.62
2022-08-17T10:32:12.427Z,34.46
2022-08-17T10:33:24.357Z,34.39
2022-08-17T10:35:02.635Z,34.42
2022-08-17T10:36:23.334Z,34.31
2022-08-17T10:37:33.523Z,34.71
2022-08-17T10:38:39.807Z,34.76
2022-08-17T10:40:04.309Z,34.84
2022-08-17T10:41:23.946Z,34.49
2022-08-17T10:42:32.929Z,33.91
2022-08-17T10:45:25.757Z,34.66
2022-08-17T10:47:03.718Z,34.81
2022-08-17T10:48:13.843Z,34.68
2022-08-17T10:49:22.317Z,34.55
2022-08-17T10:50:54.203Z,33.77
2022-08-17T10:52:01.054Z,33.85
2022-08-17T10:53:08.166Z,33.74
2022-08-17T10:54:33.281Z,34.05
2022-08-17T10:55:36.945Z,33.63
2022-08-17T10:56:44.045Z,33.54
2022-08-17T10:57:53.390Z,33.40
2022-08-17T10:59:00.410Z,33.35
2022-08-17T11:00:27.738Z,33.34
2022-08-17T11:01:44.607Z,33.07
2022-08-17T11:02:52.319Z,32.71
2022-08-17T11:03:58.921Z,33.03
2022-08-17T11:05:18.268Z,33.51
2022-08-17T11:06:27.178Z,33.79
2022-08-17T11:07:51.271Z,33.97
2022-08-17T11:09:14.192Z,34.14
2022-08-17T11:10:30.930Z,34.30
2022-08-17T11:11:58.402Z,33.98
2022-08-17T11:13:09.828Z,33.95
2022-08-17T11:14:49.097Z,33.77
2022-08-17T11:16:02.358Z,33.23
2022-08-17T11:17:20.196Z,32.62
2022-08-17T11:18:53.167Z,32.47
2022-08-17T11:45:33.043Z,31.92
2022-08-17T11:47:21.760Z,31.81
2022-08-17T11:48:53.566Z,31.71
2022-08-17T11:50:49.472Z,32.32
2022-08-17T11:52:24.861Z,32.49
2022-08-17T11:53:45.669Z,32.77
2022-08-17T11:54:49.935Z,32.98
2022-08-17T11:56:01.010Z,32.98
2022-08-17T11:58:30.729Z,32.80
2022-08-17T11:59:38.832Z,32.62
2022-08-17T12:00:54.983Z,32.65
2022-08-17T12:02:07.056Z,32.49
2022-08-17T12:03:28.685Z,32.41
2022-08-17T12:04:36.433Z,32.66
2022-08-17T12:05:40.802Z,32.74
2022-08-17T12:06:48.696Z,32.52
2022-08-17T12:08:14.225Z,32.92
2022-08-17T12:09:26.528Z,32.60
2022-08-17T12:12:13.629Z,32.63
2022-08-17T12:13:15.437Z,32.67
2022-08-17T12:14:51.312Z,33.01
2022-08-17T12:15:41.021Z,33.01
2022-08-17T12:16:45.414Z,32.71
2022-08-17T12:17:56.748Z,32.79
2022-08-17T12:19:06.054Z,32.77
2022-08-17T12:20:19.100Z,32.84
2022-08-17T12:21:33.387Z,32.76
2022-08-17T12:22:43.848Z,32.92
2022-08-17T12:25:24.660Z,32.78
2022-08-17T12:26:32.657Z,32.50
2022-08-17T12:27:50.754Z,32.30
2022-08-17T12:28:50.599Z,32.36
2022-08-17T12:29:54.938Z,32.59
2022-08-17T12:31:15.451Z,32.72
2022-08-17T12:32:22.782Z,32.46
2022-08-17T12:33:28.766Z,32.03
2022-08-17T12:34:38.248Z,32.19
2022-08-17T12:35:42.699Z,32.13
2022-08-17T12:36:51.845Z,32.18
2022-08-17T12:37:58.420Z,32.23
2022-08-17T12:39:14.272Z,32.42
2022-08-17T12:40:23.899Z,32.20
2022-08-17T12:41:34.592Z,32.05
2022-08-17T12:42:42.629Z,32.18
2022-08-17T12:43:53.279Z,32.10
2022-08-17T12:44:57.906Z,32.03
2022-08-17T12:46:14.813Z,31.85
2022-08-17T12:47:21.561Z,31.89
2022-08-17T12:48:28.352Z,32.11
2022-08-17T12:49:35.480Z,32.17
2022-08-17T12:50:47.590Z,32.11
2022-08-17T12:51:54.311Z,32.23
2022-08-17T12:53:02.059Z,32.32
2022-08-17T12:54:04.002Z,32.31
2022-08-17T12:55:24.621Z,32.40
2022-08-17T12:56:31.805Z,32.34
2022-08-17T12:57:47.417Z,32.18
2022-08-17T12:58:57.057Z,32.10
2022-08-17T13:00:13.718Z,32.30
2022-08-17T13:01:18.633Z,32.03
2022-08-17T13:02:28.196Z,31.99
2022-08-17T13:03:40.264Z,31.91
2022-08-17T13:04:44.807Z,31.99
2022-08-17T13:06:02.847Z,31.90
2022-08-17T13:07:06.333Z,32.09
2022-08-17T13:08:16.891Z,32.07
2022-08-17T13:09:22.638Z,31.97
2022-08-17T13:10:33.526Z,32.02
2022-08-17T13:11:39.472Z,31.95
2022-08-17T13:12:43.232Z,32.05
2022-08-17T13:13:55.881Z,32.23
2022-08-17T13:15:01.926Z,32.40
2022-08-17T13:16:11.887Z,32.38
2022-08-17T13:17:21.274Z,32.16
2022-08-17T13:18:49.735Z,32.05
2022-08-17T13:19:54.205Z,31.95
2022-08-17T13:21:00.805Z,31.97
2022-08-17T13:22:10.392Z,31.94
2022-08-17T13:23:18.905Z,31.96
2022-08-17T13:24:53.600Z,31.95
2022-08-17T13:26:10.099Z,32.14
2022-08-17T13:27:19.022Z,32.25
2022-08-17T13:28:35.817Z,32.43
2022-08-17T13:29:39.181Z,32.55
2022-08-17T13:30:42.799Z,32.45
2022-08-17T13:31:52.795Z,32.43
2022-08-17T13:32:57.582Z,32.67
2022-08-17T13:34:27.691Z,32.69
2022-08-17T13:35:44.310Z,32.59
2022-08-17T13:36:57.311Z,32.20
2022-08-17T13:38:12.212Z,32.10
2022-08-17T13:39:19.585Z,32.25
2022-08-17T13:40:29.137Z,32.23
2022-08-17T13:41:37.169Z,32.34
2022-08-17T13:42:53.164Z,32.15
2022-08-17T13:43:54.491Z,32.06
2022-08-17T13:45:02.188Z,32.04
2022-08-17T13:46:18.314Z,31.90
2022-08-17T13:47:29.146Z,31.82
2022-08-17T13:48:33.517Z,31.96
2022-08-17T13:49:49.090Z,32.14
2022-08-17T13:50:49.672Z,32.19
2022-08-17T13:51:53.953Z,32.11
2022-08-17T13:53:00.909Z,31.93
2022-08-17T13:54:11.133Z,32.06
2022-08-17T13:55:22.126Z,32.35
2022-08-17T13:56:38.421Z,32.44
2022-08-17T13:57:39.870Z,32.24
2022-08-17T13:58:59.135Z,32.19
2022-08-17T14:00:13.053Z,32.21
2022-08-17T14:01:52.775Z,32.15
2022-08-17T14:02:55.277Z,32.05
2022-08-17T14:04:02.334Z,31.95
2022-08-17T14:05:08.005Z,31.74
2022-08-17T14:06:51.910Z,31.84
2022-08-17T14:07:24.594Z,31.85
2022-08-17T14:08:29.072Z,31.85
2022-08-17T14:09:37.354Z,31.81
2022-08-17T14:10:43.966Z,31.86
2022-08-17T14:11:48.820Z,31.71
2022-08-17T14:12:54.307Z,31.73
2022-08-17T14:13:59.211Z,31.64
2022-08-17T14:15:03.863Z,31.72
2022-08-17T14:16:09.420Z,31.81
2022-08-17T14:17:14.879Z,31.81
2022-08-17T14:18:42.024Z,31.88
2022-08-17T14:19:30.872Z,31.65
2022-08-17T14:20:36.248Z,31.49
2022-08-17T14:21:44.560Z,31.54
2022-08-17T14:22:51.273Z,31.44
2022-08-17T14:23:55.184Z,31.42
2022-08-17T14:25:02.215Z,31.38
2022-08-17T14:26:07.689Z,31.27
2022-08-17T14:27:12.446Z,31.06
2022-08-17T14:28:15.932Z,30.90
2022-08-17T14:29:20.639Z,30.93
2022-08-17T14:30:29.825Z,30.95
2022-08-17T14:31:37.393Z,30.96
2022-08-17T14:32:40.361Z,30.84
2022-08-17T14:33:45.295Z,30.91
2022-08-17T14:34:50.091Z,30.89
2022-08-17T14:35:55.316Z,30.95
2022-08-17T14:37:00.531Z,31.06
2022-08-17T14:38:04.281Z,31.16
2022-08-17T14:39:09.544Z,31.10
2022-08-17T14:40:17.124Z,31.20
2022-08-17T14:41:24.960Z,31.27
2022-08-17T14:42:39.118Z,31.40
2022-08-17T14:43:43.786Z,31.45
2022-08-17T14:44:46.499Z,31.35
2022-08-17T14:45:51.401Z,31.25
2022-08-17T14:47:00.321Z,31.29
2022-08-17T14:48:08.898Z,31.28
2022-08-17T14:49:16.114Z,31.25
2022-08-17T14:50:22.083Z,31.09
2022-08-17T14:51:32.397Z,30.89
2022-08-17T14:52:35.577Z,30.73
2022-08-17T14:53:39.211Z,30.78
2022-08-17T14:54:47.228Z,30.83
2022-08-17T14:55:53.472Z,30.72
2022-08-17T14:56:59.195Z,30.62
2022-08-17T14:58:03.934Z,30.70
2022-08-17T14:59:11.007Z,30.71
2022-08-17T15:00:17.926Z,30.84
2022-08-17T15:01:27.034Z,30.88
2022-08-17T15:02:30.866Z,30.87
2022-08-17T15:03:41.641Z,30.71
2022-08-17T15:04:49.405Z,30.81
2022-08-17T15:05:53.406Z,30.84
2022-08-17T15:06:58.577Z,30.78
2022-08-17T15:08:05.193Z,30.69
2022-08-17T15:09:08.178Z,30.75
2022-08-17T15:10:19.301Z,30.87
2022-08-17T15:11:25.701Z,30.92
2022-08-17T15:12:34.328Z,30.83
2022-08-17T15:13:52.954Z,30.85
2022-08-17T15:14:49.275Z,30.82
2022-08-17T15:15:54.716Z,30.65
2022-08-17T15:16:58.891Z,30.69
2022-08-17T15:18:02.922Z,30.81
2022-08-17T15:19:10.986Z,30.86
2022-08-17T15:20:21.097Z,30.83
2022-08-17T15:21:24.510Z,30.79
2022-08-17T15:22:28.045Z,30.67
2022-08-17T15:23:33.605Z,30.70
2022-08-17T15:25:55.066Z,30.67
2022-08-17T15:27:01.672Z,30.65
2022-08-17T15:28:05.590Z,30.51
2022-08-17T15:29:13.380Z,30.58
2022-08-17T15:30:21.765Z,30.44
2022-08-17T15:31:31.674Z,30.49
2022-08-17T15:32:39.597Z,30.55
2022-08-17T15:33:43.101Z,30.56
2022-08-17T15:34:47.482Z,30.68
2022-08-17T15:35:53.799Z,30.71
2022-08-17T15:37:00.638Z,30.73
2022-08-17T15:38:12.059Z,30.68
2022-08-17T15:39:19.550Z,30.74
2022-08-17T15:40:24.213Z,30.69
2022-08-17T15:41:29.213Z,30.43
2022-08-17T15:42:36.337Z,30.45
2022-08-17T15:43:40.205Z,30.43
2022-08-17T15:44:45.747Z,30.54
2022-08-17T15:45:58.619Z,30.50
2022-08-17T15:46:54.380Z,30.46
2022-08-17T15:48:01.612Z,30.52
2022-08-17T15:49:05.589Z,30.51
2022-08-17T15:50:14.656Z,30.40
2022-08-17T15:51:31.510Z,30.49
2022-08-17T15:52:41.929Z,30.38
2022-08-17T15:53:49.181Z,30.26
2022-08-17T15:55:20.811Z,30.20
2022-08-17T15:56:24.225Z,30.16
2022-08-17T15:57:29.162Z,30.19
2022-08-17T15:58:34.598Z,30.19
2022-08-17T15:59:39.668Z,30.13
2022-08-17T16:00:53.556Z,29.98
2022-08-17T16:03:16.042Z,29.93
2022-08-17T16:03:44.680Z,29.94
2022-08-17T16:04:30.528Z,30.02
2022-08-17T16:05:18.816Z,29.92
2022-08-17T16:06:25.241Z,29.81
2022-08-17T16:07:28.959Z,29.74
2022-08-17T16:08:31.816Z,29.48
2022-08-17T16:09:35.295Z,29.30
2022-08-17T16:10:43.980Z,29.29
2022-08-17T16:11:53.763Z,29.23
2022-08-17T16:12:55.806Z,29.12
2022-08-17T16:14:00.536Z,28.88
2022-08-17T16:15:06.059Z,28.95
2022-08-17T16:16:12.670Z,29.00
2022-08-17T16:17:39.602Z,28.96
2022-08-17T16:18:27.770Z,28.94
2022-08-17T16:19:33.277Z,28.92
2022-08-17T16:20:39.356Z,28.84
2022-08-17T16:21:42.754Z,28.73
2022-08-17T16:22:47.724Z,28.70
2022-08-17T16:23:59.443Z,28.68
2022-08-17T16:25:12.324Z,28.72
2022-08-17T16:26:16.005Z,28.77
2022-08-17T16:27:20.816Z,28.62
2022-08-17T16:28:35.592Z,28.62
2022-08-17T16:29:30.274Z,28.57
2022-08-17T16:30:32.909Z,28.56
2022-08-17T16:31:38.312Z,28.55
2022-08-17T16:32:42.417Z,28.55
2022-08-17T16:34:17.007Z,28.52
2022-08-17T16:34:52.248Z,28.47
2022-08-17T16:35:56.841Z,28.44
2022-08-17T16:37:02.179Z,28.41